Time;durP1;ratioP1;P1;durP2;ratioP2;P2;SDS_P1;SDS_P2;PMS_P1;PMS_P2;Temp;Humidity;BMP_temperature;BMP_pressure;BME280_temperature;BME280_humidity;BME280_pressure;Samples;Min_cycle;Max_cycle;Signal;HPM_P1;HPM_P2
2022/11/04 00:01:23;;;;;;;1999.90;999.90;;;11.60;99.90;;;;;;5048950;28;20458;-70
2022/11/04 00:03:50;;;;;;;1999.90;999.90;;;11.50;99.90;;;;;;5039159;28;20471;-70
2022/11/04 00:06:19;;;;;;;1999.90;999.90;;;11.50;99.90;;;;;;5028494;28;20962;-69
2022/11/04 00:08:49;;;;;;;1999.90;999.90;;;11.40;99.90;;;;;;5026518;28;20462;-68
2022/11/04 00:14:00;;;;;;;1999.90;999.90;;;11.40;99.90;;;;;;5027039;28;20498;-70
2022/11/04 00:19:11;;;;;;;1999.90;999.90;;;11.70;99.90;;;;;;5029301;28;20457;-69
2022/11/04 00:29:55;;;;;;;1999.90;999.90;;;11.90;99.90;;;;;;5024766;28;20463;-69
2022/11/04 00:35:07;;;;;;;1999.90;999.90;;;12.00;99.90;;;;;;5029683;28;20891;-69
2022/11/04 00:37:37;;;;;;;1999.90;999.90;;;12.00;99.90;;;;;;5029913;28;20486;-69
2022/11/04 00:40:05;;;;;;;1999.90;999.90;;;12.10;99.90;;;;;;5030251;28;20846;-69
2022/11/04 00:42:32;;;;;;;1999.90;999.90;;;12.20;99.90;;;;;;5030205;28;20482;-70
2022/11/04 00:44:59;;;;;;;1999.90;999.90;;;12.20;99.90;;;;;;5033269;28;20455;-70
2022/11/04 00:47:26;;;;;;;1999.90;999.90;;;12.30;99.90;;;;;;5034871;28;20462;-69
2022/11/04 00:49:53;;;;;;;1999.90;999.90;;;12.40;99.90;;;;;;5032618;28;20850;-69
2022/11/04 00:52:20;;;;;;;1999.90;999.90;;;12.40;99.90;;;;;;5039992;28;20497;-70
2022/11/04 00:54:48;;;;;;;1999.90;999.90;;;12.40;99.90;;;;;;5031691;28;20514;-70
2022/11/04 00:57:16;;;;;;;1999.90;999.90;;;12.40;99.90;;;;;;5035351;28;20471;-70
2022/11/04 00:59:44;;;;;;;1999.90;999.90;;;12.40;99.90;;;;;;5028291;28;20474;-70
2022/11/04 01:02:11;;;;;;;1999.90;999.90;;;12.40;99.90;;;;;;5038972;28;20532;-70
2022/11/04 01:04:38;;;;;;;1999.90;999.90;;;12.40;99.90;;;;;;5035602;28;20557;-69
2022/11/04 01:07:05;;;;;;;1999.90;999.90;;;12.40;99.90;;;;;;5037552;28;20463;-70
2022/11/04 01:09:32;;;;;;;1999.90;999.90;;;12.40;99.90;;;;;;5039964;28;20467;-69
2022/11/04 01:12:00;;;;;;;1999.90;999.90;;;12.40;99.90;;;;;;5032739;28;20463;-69
2022/11/04 01:14:27;;;;;;;1999.90;999.90;;;12.50;99.90;;;;;;5032413;28;20475;-69
2022/11/04 01:16:54;;;;;;;1999.90;999.90;;;12.50;99.90;;;;;;5030876;28;20479;-71
2022/11/04 01:19:20;;;;;;;1999.90;999.90;;;12.60;99.90;;;;;;5032406;28;20463;-71
2022/11/04 01:21:51;;;;;;;1999.90;999.90;;;12.60;99.90;;;;;;5034215;28;20508;-71
2022/11/04 01:24:18;;;;;;;1999.90;999.90;;;12.70;99.90;;;;;;5036292;28;20551;-72
2022/11/04 01:26:44;;;;;;;1999.90;999.90;;;12.60;99.90;;;;;;5034852;28;20836;-70
2022/11/04 01:29:13;;;;;;;1999.90;999.90;;;12.60;99.90;;;;;;5033016;28;20463;-70
2022/11/04 01:31:39;;;;;;;1999.90;999.90;;;12.60;99.90;;;;;;5036174;28;20455;-69
2022/11/04 01:34:06;;;;;;;1999.90;999.90;;;12.60;99.90;;;;;;5034949;28;20483;-70
2022/11/04 01:36:33;;;;;;;1999.90;999.90;;;12.60;99.90;;;;;;5032572;28;20485;-70
2022/11/04 01:39:00;;;;;;;1999.90;999.90;;;12.70;99.90;;;;;;5033700;28;20466;-69
2022/11/04 01:41:28;;;;;;;1999.90;999.90;;;12.70;99.90;;;;;;5037850;28;20466;-68
2022/11/04 01:43:57;;;;;;;1999.90;999.90;;;12.70;99.90;;;;;;5034615;28;20990;-69
2022/11/04 01:46:32;;;;;;;1999.90;999.90;;;12.70;99.90;;;;;;5030772;28;20458;-69
2022/11/04 01:49:04;;;;;;;1999.90;999.90;;;12.60;99.90;;;;;;5030872;28;21053;-69
2022/11/04 01:51:35;;;;;;;1999.90;999.90;;;12.50;99.90;;;;;;5033174;28;20846;-70
2022/11/04 01:54:04;;;;;;;1999.90;999.90;;;12.50;99.90;;;;;;5034094;28;20490;-70
2022/11/04 01:56:33;;;;;;;1999.90;999.90;;;12.50;99.90;;;;;;5027508;28;20451;-69
2022/11/04 01:59:06;;;;;;;1999.90;999.90;;;12.30;99.90;;;;;;5034722;28;20443;-69
2022/11/04 02:01:34;;;;;;;1999.90;999.90;;;12.30;99.90;;;;;;5034505;28;20459;-69
2022/11/04 02:06:42;;;;;;;1999.90;999.90;;;12.70;99.90;;;;;;5030283;28;20455;-69
2022/11/04 02:09:09;;;;;;;1999.90;999.90;;;12.20;99.90;;;;;;5032509;28;20985;-69
2022/11/04 02:14:20;;;;;;;1999.90;999.90;;;12.20;99.90;;;;;;5031617;28;20516;-69
2022/11/04 02:16:50;;;;;;;1999.90;999.90;;;12.20;99.90;;;;;;5034113;28;20473;-70
2022/11/04 02:19:40;;;;;;;1999.90;999.90;;;12.10;99.90;;;;;;5031373;28;20485;-69
2022/11/04 02:22:35;;;;;;;1999.90;999.90;;;12.10;99.90;;;;;;5029729;28;20489;-69
2022/11/04 02:25:23;;;;;;;1999.90;999.90;;;12.10;99.90;;;;;;5030211;28;20459;-70
2022/11/04 02:28:14;;;;;;;1999.90;999.90;;;12.10;99.90;;;;;;5027329;28;20470;-69
2022/11/04 02:30:48;;;;;;;1999.90;999.90;;;12.20;99.90;;;;;;5029433;28;20451;-69
2022/11/04 02:33:22;;;;;;;1999.90;999.90;;;11.90;99.90;;;;;;5033140;28;20478;-69
2022/11/04 02:36:00;;;;;;;1999.90;999.90;;;12.00;99.90;;;;;;5037147;28;20478;-69
2022/11/04 02:38:35;;;;;;;1999.90;999.90;;;12.00;99.90;;;;;;5030069;28;20455;-69
2022/11/04 02:41:12;;;;;;;1999.90;999.90;;;11.60;99.90;;;;;;5028612;28;20466;-69
2022/11/04 02:43:48;;;;;;;1999.90;999.90;;;11.80;99.90;;;;;;5035163;28;21034;-70
2022/11/04 02:46:21;;;;;;;1999.90;999.90;;;11.80;99.90;;;;;;5032849;28;20455;-70
2022/11/04 02:48:53;;;;;;;1999.90;999.90;;;11.80;99.90;;;;;;5036147;28;20462;-73
2022/11/04 02:51:24;;;;;;;1999.90;999.90;;;11.80;99.90;;;;;;5032483;28;20459;-71
2022/11/04 02:54:02;;;;;;;1999.90;999.90;;;11.70;99.90;;;;;;5031808;28;20494;-72
2022/11/04 02:56:31;;;;;;;1999.90;999.90;;;11.70;99.90;;;;;;5029099;28;20495;-72
2022/11/04 02:59:03;;;;;;;1999.90;999.90;;;11.70;99.90;;;;;;5032636;28;20471;-70
2022/11/04 03:01:34;;;;;;;1999.90;999.90;;;11.60;99.90;;;;;;5029826;28;20463;-71
2022/11/04 03:04:06;;;;;;;1999.90;999.90;;;11.60;99.90;;;;;;5031562;28;20494;-72
2022/11/04 03:06:34;;;;;;;1999.90;999.90;;;11.60;99.90;;;;;;5032332;28;20482;-71
2022/11/04 03:09:02;;;;;;;1999.90;999.90;;;11.60;99.90;;;;;;5031381;28;20844;-70
2022/11/04 03:11:30;;;;;;;1999.90;999.90;;;11.60;99.90;;;;;;5036211;28;20459;-69
2022/11/04 03:13:59;;;;;;;1999.90;999.90;;;11.70;99.90;;;;;;5029631;28;20864;-69
2022/11/04 03:16:32;;;;;;;1999.90;999.90;;;11.60;99.90;;;;;;5027534;28;20901;-69
2022/11/04 03:19:03;;;;;;;1999.90;999.90;;;11.70;99.90;;;;;;5026061;28;20463;-70
2022/11/04 03:21:35;;;;;;;1999.90;999.90;;;11.80;99.90;;;;;;5033270;28;20466;-70
2022/11/04 03:24:02;;;;;;;1999.90;999.90;;;11.80;99.90;;;;;;5033916;28;20490;-70
2022/11/04 03:26:37;;;;;;;1999.90;999.90;;;11.80;99.90;;;;;;5026229;28;20453;-69
2022/11/04 03:29:15;;;;;;;1999.90;999.90;;;11.90;99.90;;;;;;5031782;28;20466;-69
2022/11/04 03:31:47;;;;;;;1999.90;999.90;;;12.00;99.90;;;;;;5033672;28;20566;-70
2022/11/04 03:34:15;;;;;;;1999.90;999.90;;;12.00;99.90;;;;;;5033208;28;21064;-71
2022/11/04 03:36:42;;;;;;;1999.90;999.90;;;12.10;99.90;;;;;;5029696;28;20494;-71
2022/11/04 03:39:09;;;;;;;1999.90;999.90;;;12.20;99.90;;;;;;5028203;28;20466;-72
2022/11/04 03:41:40;;;;;;;1999.90;999.90;;;12.30;99.90;;;;;;5036671;28;20991;-71
2022/11/04 03:44:07;;;;;;;1999.90;999.90;;;12.30;99.90;;;;;;5025815;28;20487;-72
2022/11/04 03:46:34;;;;;;;1999.90;999.90;;;12.40;99.90;;;;;;5026924;28;20463;-70
2022/11/04 03:49:01;;;;;;;1999.90;999.90;;;12.40;99.90;;;;;;5027733;28;20463;-72
2022/11/04 03:51:30;;;;;;;1999.90;999.90;;;12.40;99.90;;;;;;5032550;28;20465;-72
2022/11/04 03:53:57;;;;;;;1999.90;999.90;;;12.50;99.90;;;;;;5026541;28;20495;-71
2022/11/04 03:56:38;;;;;;;1999.90;999.90;;;12.50;99.90;;;;;;5023652;28;20494;-71
2022/11/04 03:59:13;;;;;;;1999.90;999.90;;;12.50;99.90;;;;;;5025003;28;20955;-72
2022/11/04 04:01:46;;;;;;;1999.90;999.90;;;12.50;99.90;;;;;;5025986;28;20466;-72
2022/11/04 04:04:20;;;;;;;1999.90;999.90;;;12.50;99.90;;;;;;5032094;28;20553;-71
2022/11/04 04:06:54;;;;;;;1999.90;999.90;;;12.50;99.90;;;;;;5028700;28;20565;-72
2022/11/04 04:09:25;;;;;;;1999.90;999.90;;;12.50;99.90;;;;;;5029499;28;20463;-71
2022/11/04 04:11:55;;;;;;;1999.90;999.90;;;12.50;99.90;;;;;;5026409;28;20463;-71
2022/11/04 04:14:39;;;;;;;1999.90;999.90;;;12.60;99.90;;;;;;5023336;28;20463;-71
2022/11/04 04:17:13;;;;;;;1999.90;999.90;;;12.50;99.90;;;;;;5031339;28;20466;-72
2022/11/04 04:19:42;;;;;;;1999.90;999.90;;;12.40;99.90;;;;;;5028987;28;20947;-72
2022/11/04 04:22:15;;;;;;;1999.90;999.90;;;12.40;99.90;;;;;;5027394;28;20871;-71
2022/11/04 04:27:31;;;;;;;1999.90;999.90;;;12.40;99.90;;;;;;5029122;28;20443;-72
2022/11/04 04:30:01;;;;;;;1999.90;999.90;;;12.40;99.90;;;;;;5021933;28;20498;-71
2022/11/04 04:32:32;;;;;;;1999.90;999.90;;;12.40;99.90;;;;;;5026362;28;20864;-72
2022/11/04 04:37:44;;;;;;;1999.90;999.90;;;12.30;99.90;;;;;;5019549;28;20823;-71
2022/11/04 04:45:50;;;;;;;1999.90;999.90;;;12.40;99.90;;;;;;5031979;28;20450;-72
2022/11/04 04:48:18;;;;;;;1999.90;999.90;;;12.30;99.90;;;;;;5026960;28;20994;-72
2022/11/04 04:50:48;;;;;;;1999.90;999.90;;;12.20;99.90;;;;;;5030876;28;20459;-71
2022/11/04 04:53:16;;;;;;;1999.90;999.90;;;12.20;99.90;;;;;;5029332;28;20495;-71
2022/11/04 04:55:43;;;;;;;1999.90;999.90;;;12.10;99.90;;;;;;5031477;28;20491;-71
2022/11/04 04:58:10;;;;;;;1999.90;999.90;;;12.10;99.90;;;;;;5031389;28;20458;-71
2022/11/04 05:00:36;;;;;;;1999.90;999.90;;;12.00;99.90;;;;;;5029764;28;20459;-71
2022/11/04 05:03:03;;;;;;;1999.90;999.90;;;12.00;99.90;;;;;;5027976;28;20486;-71
2022/11/04 05:05:30;;;;;;;1999.90;999.90;;;11.90;99.90;;;;;;5031038;28;20463;-72
2022/11/04 05:08:04;;;;;;;1999.90;999.90;;;11.90;99.90;;;;;;5026491;28;20467;-72
2022/11/04 05:10:32;;;;;;;1999.90;999.90;;;11.80;99.90;;;;;;5026496;28;20463;-72
2022/11/04 05:15:44;;;;;;;1999.90;999.90;;;11.90;99.90;;;;;;5028389;28;21016;-72
2022/11/04 05:18:11;;;;;;;1999.90;999.90;;;11.80;99.90;;;;;;5025268;28;20883;-71
2022/11/04 05:20:39;;;;;;;1999.90;999.90;;;11.80;99.90;;;;;;5028719;28;20854;-71
2022/11/04 05:23:06;;;;;;;1999.90;999.90;;;11.80;99.90;;;;;;5029994;28;20994;-71
2022/11/04 05:25:34;;;;;;;1999.90;999.90;;;11.70;99.90;;;;;;5023077;28;20952;-72
2022/11/04 05:28:01;;;;;;;1999.90;999.90;;;11.70;99.90;;;;;;5026129;28;21009;-71
2022/11/04 05:30:28;;;;;;;1999.90;999.90;;;11.70;99.90;;;;;;5025676;28;20460;-71
2022/11/04 05:32:55;;;;;;;1999.90;999.90;;;11.70;99.90;;;;;;5030423;28;20483;-72
2022/11/04 05:35:22;;;;;;;1999.90;999.90;;;11.60;99.90;;;;;;5024686;28;20519;-72
2022/11/04 05:37:48;;;;;;;1999.90;999.90;;;11.50;99.90;;;;;;5028403;28;20486;-72
2022/11/04 05:40:15;;;;;;;1999.90;999.90;;;11.50;99.90;;;;;;5038520;28;20989;-71
2022/11/04 05:42:43;;;;;;;1999.90;999.90;;;11.50;99.90;;;;;;5030537;28;20486;-71
2022/11/04 05:45:10;;;;;;;1999.90;999.90;;;11.50;99.90;;;;;;5034439;28;20474;-71
2022/11/04 05:47:37;;;;;;;1999.90;999.90;;;11.40;99.90;;;;;;5045764;28;20467;-71
2022/11/04 05:50:05;;;;;;;1999.90;999.90;;;11.40;99.90;;;;;;5043864;28;20467;-71
2022/11/04 05:52:31;;;;;;;1999.90;999.90;;;11.40;99.90;;;;;;5040182;28;20479;-71
2022/11/04 05:54:58;;;;;;;1999.90;999.90;;;11.40;99.90;;;;;;5061034;23;20515;-68
2022/11/04 05:57:25;;;;;;;1999.90;999.90;;;11.30;99.90;;;;;;5045851;28;20489;-68
2022/11/04 05:59:53;;;;;;;1999.90;999.90;;;11.30;99.90;;;;;;5051321;28;20489;-68
2022/11/04 06:02:20;;;;;;;1999.90;999.90;;;11.30;99.90;;;;;;5034949;28;20454;-69
2022/11/04 06:04:46;;;;;;;1999.90;999.90;;;11.20;99.90;;;;;;5044330;28;20484;-68
2022/11/04 06:07:13;;;;;;;1999.90;999.90;;;11.20;99.90;;;;;;5046614;28;20454;-68
2022/11/04 06:09:40;;;;;;;1999.90;999.90;;;11.20;99.90;;;;;;5047542;28;20473;-68
2022/11/04 06:12:09;;;;;;;1999.90;999.90;;;11.20;99.90;;;;;;5048942;28;20981;-68
2022/11/04 06:14:36;;;;;;;1999.90;999.90;;;11.10;99.90;;;;;;5048626;28;20474;-68
2022/11/04 06:17:04;;;;;;;1999.90;999.90;;;11.20;99.90;;;;;;5047088;28;20482;-68
2022/11/04 06:19:31;;;;;;;1999.90;999.90;;;11.10;99.90;;;;;;5050239;28;20462;-68
2022/11/04 06:21:58;;;;;;;1999.90;999.90;;;11.00;99.90;;;;;;5052142;28;20560;-68
2022/11/04 06:24:24;;;;;;;1999.90;999.90;;;11.00;99.90;;;;;;5049500;28;20487;-70
2022/11/04 06:26:51;;;;;;;1999.90;999.90;;;11.00;99.90;;;;;;5050867;28;20466;-67
2022/11/04 06:29:18;;;;;;;1999.90;999.90;;;11.00;99.90;;;;;;5052226;28;20489;-68
2022/11/04 06:31:45;;;;;;;1999.90;999.90;;;10.90;99.90;;;;;;5052692;28;20481;-68
2022/11/04 06:34:13;;;;;;;1999.90;999.90;;;10.80;99.90;;;;;;5052008;28;20462;-67
2022/11/04 06:36:39;;;;;;;1999.90;999.90;;;10.90;99.90;;;;;;5033334;28;20494;-68
2022/11/04 06:39:06;;;;;;;1999.90;999.90;;;10.90;99.90;;;;;;5033717;28;20453;-68
2022/11/04 06:41:33;;;;;;;1999.90;999.90;;;10.90;99.90;;;;;;5046900;28;20469;-69
2022/11/04 06:44:00;;;;;;;1999.90;999.90;;;11.00;99.90;;;;;;5048012;28;20485;-68
2022/11/04 06:46:28;;;;;;;1999.90;999.90;;;11.10;99.90;;;;;;5042190;28;20459;-68
2022/11/04 06:48:56;;;;;;;1999.90;999.90;;;11.10;99.90;;;;;;5044373;28;20460;-68
2022/11/04 06:51:25;;;;;;;1999.90;999.90;;;11.10;99.90;;;;;;5041145;28;20459;-68
2022/11/04 06:53:52;;;;;;;1999.90;999.90;;;11.30;99.90;;;;;;5043347;28;20906;-66
2022/11/04 06:56:19;;;;;;;1999.90;999.90;;;11.20;99.90;;;;;;5047936;28;20486;-69
2022/11/04 06:58:47;;;;;;;1999.90;999.90;;;11.20;99.90;;;;;;5047064;28;20458;-70
2022/11/04 07:01:14;;;;;;;1999.90;999.90;;;11.20;99.90;;;;;;5047725;28;20462;-69
2022/11/04 07:03:41;;;;;;;1999.90;999.90;;;11.20;99.90;;;;;;5052129;28;20501;-68
2022/11/04 07:06:09;;;;;;;1999.90;999.90;;;11.20;99.90;;;;;;5048450;28;20458;-69
2022/11/04 07:08:37;;;;;;;1999.90;999.90;;;11.10;99.90;;;;;;5046544;28;20462;-69
2022/11/04 07:11:04;;;;;;;1999.90;999.90;;;11.20;99.90;;;;;;5045154;28;20469;-68
2022/11/04 07:13:31;;;;;;;1999.90;999.90;;;11.30;99.90;;;;;;5043294;28;20479;-69
2022/11/04 07:15:58;;;;;;;1999.90;999.90;;;11.20;99.90;;;;;;5043623;28;20967;-69
2022/11/04 07:18:25;;;;;;;1999.90;999.90;;;11.20;99.90;;;;;;5045157;28;20473;-70
2022/11/04 07:20:52;;;;;;;1999.90;999.90;;;11.50;99.90;;;;;;5048284;28;20474;-70
2022/11/04 07:23:19;;;;;;;1999.90;999.90;;;11.20;99.90;;;;;;5041055;28;20458;-69
2022/11/04 07:25:47;;;;;;;1999.90;999.90;;;11.20;99.90;;;;;;5041538;28;20466;-67
2022/11/04 07:28:13;;;;;;;1999.90;999.90;;;11.20;99.90;;;;;;5041163;28;20482;-67
2022/11/04 07:30:40;;;;;;;1999.90;999.90;;;11.30;99.90;;;;;;5041900;28;20454;-67
2022/11/04 07:33:07;;;;;;;1999.90;999.90;;;11.40;99.90;;;;;;5048401;28;20469;-69
2022/11/04 07:35:35;;;;;;;1999.90;999.90;;;11.40;99.90;;;;;;5049198;28;20988;-68
2022/11/04 07:38:03;;;;;;;1999.90;999.90;;;11.40;99.90;;;;;;5047374;28;20469;-69
2022/11/04 07:40:33;;;;;;;1999.90;999.90;;;11.30;99.90;;;;;;5043527;28;20467;-68
2022/11/04 07:43:01;;;;;;;1999.90;999.90;;;11.40;99.90;;;;;;5047151;28;20462;-68
2022/11/04 07:45:28;;;;;;;1999.90;999.90;;;11.40;99.90;;;;;;5046908;28;20485;-68
2022/11/04 07:47:54;;;;;;;1999.90;999.90;;;11.40;99.90;;;;;;5049529;28;20462;-68
2022/11/04 07:50:21;;;;;;;1999.90;999.90;;;11.50;99.90;;;;;;5051043;28;21008;-68
2022/11/04 07:52:49;;;;;;;1999.90;999.90;;;11.50;99.90;;;;;;5052364;28;20442;-68
2022/11/04 07:55:17;;;;;;;1999.90;999.90;;;11.60;99.90;;;;;;5044087;28;20497;-68
2022/11/04 07:57:44;;;;;;;1999.90;999.90;;;11.60;99.90;;;;;;5042280;28;20490;-68
2022/11/04 08:00:15;;;;;;;1999.90;999.90;;;11.70;99.90;;;;;;5040975;28;20461;-68
2022/11/04 08:02:43;;;;;;;1999.90;999.90;;;11.70;99.90;;;;;;5046819;28;20462;-68
2022/11/04 08:05:10;;;;;;;1999.90;999.90;;;11.70;99.90;;;;;;5048233;28;21147;-68
2022/11/04 08:07:37;;;;;;;1999.90;999.90;;;11.80;99.90;;;;;;5052007;28;20449;-67
2022/11/04 08:10:04;;;;;;;1999.90;999.90;;;11.70;99.90;;;;;;5042415;28;20470;-67
2022/11/04 08:12:32;;;;;;;1999.90;999.90;;;11.70;99.90;;;;;;5050868;28;20508;-67
2022/11/04 08:14:59;;;;;;;1999.90;999.90;;;11.70;99.90;;;;;;5049291;28;20863;-70
2022/11/04 08:17:27;;;;;;;1999.90;999.90;;;11.70;99.90;;;;;;5051193;28;20489;-67
2022/11/04 08:19:53;;;;;;;1999.90;999.90;;;11.70;99.90;;;;;;5048172;28;20461;-67
2022/11/04 08:22:20;;;;;;;1999.90;999.90;;;11.70;99.90;;;;;;5048748;28;20459;-67
2022/11/04 08:24:47;;;;;;;1999.90;999.90;;;11.70;99.90;;;;;;5048707;28;21284;-68
2022/11/04 08:27:14;;;;;;;1999.90;999.90;;;11.70;99.90;;;;;;5041073;28;21174;-67
2022/11/04 08:29:41;;;;;;;1999.90;999.90;;;11.80;99.90;;;;;;5031763;28;20951;-68
2022/11/04 08:32:08;;;;;;;1999.90;999.90;;;11.90;99.90;;;;;;5032337;28;20973;-69
2022/11/04 08:34:36;;;;;;;1999.90;999.90;;;11.90;99.90;;;;;;5049367;28;20474;-67
2022/11/04 08:37:03;;;;;;;1999.90;999.90;;;11.90;99.90;;;;;;5031853;28;20482;-70
2022/11/04 08:39:30;;;;;;;1999.90;999.90;;;11.80;99.90;;;;;;5037847;28;20931;-67
2022/11/04 08:41:57;;;;;;;1999.90;999.90;;;12.00;99.90;;;;;;5051876;28;20442;-67
2022/11/04 08:44:24;;;;;;;1999.90;999.90;;;11.90;99.90;;;;;;5051310;28;20484;-67
2022/11/04 08:46:51;;;;;;;1999.90;999.90;;;11.90;99.90;;;;;;5046423;28;20466;-68
2022/11/04 08:49:18;;;;;;;1999.90;999.90;;;11.90;99.90;;;;;;5046199;28;20470;-67
2022/11/04 08:51:48;;;;;;;1999.90;999.90;;;11.90;99.90;;;;;;5044942;28;20487;-67
2022/11/04 08:54:16;;;;;;;1999.90;999.90;;;11.90;99.90;;;;;;5041146;28;20528;-68
2022/11/04 08:56:42;;;;;;;1999.90;999.90;;;11.90;99.90;;;;;;5047459;28;20505;-68
2022/11/04 08:59:10;;;;;;;1999.90;999.90;;;12.00;99.90;;;;;;5049648;28;20453;-68
2022/11/04 09:01:37;;;;;;;1999.90;999.90;;;12.00;99.90;;;;;;5035491;28;20534;-68
2022/11/04 09:04:05;;;;;;;1999.90;999.90;;;12.10;99.90;;;;;;5050340;28;20474;-67
2022/11/04 09:06:34;;;;;;;1999.90;999.90;;;12.20;99.90;;;;;;5031676;28;20450;-68
2022/11/04 09:09:03;;;;;;;1999.90;999.90;;;12.30;99.90;;;;;;5031410;28;20884;-68
2022/11/04 09:11:32;;;;;;;1999.90;999.90;;;12.30;99.90;;;;;;5031443;28;20458;-67
2022/11/04 09:14:00;;;;;;;1999.90;999.90;;;12.30;99.90;;;;;;5033559;28;21001;-67
2022/11/04 09:16:28;;;;;;;1999.90;999.90;;;12.30;99.90;;;;;;5038140;28;20543;-67
2022/11/04 09:18:56;;;;;;;1999.90;999.90;;;12.30;99.90;;;;;;5054123;28;20465;-67
2022/11/04 09:21:23;;;;;;;1999.90;999.90;;;12.40;99.90;;;;;;5052018;28;20458;-67
2022/11/04 09:23:50;;;;;;;1999.90;999.90;;;12.40;99.90;;;;;;5035313;28;20465;-67
2022/11/04 09:26:19;;;;;;;1999.90;999.90;;;12.40;99.90;;;;;;5034293;28;21479;-69
2022/11/04 09:28:46;;;;;;;1999.90;999.90;;;12.20;99.90;;;;;;5035296;28;20825;-67
2022/11/04 09:31:15;;;;;;;1999.90;999.90;;;12.30;99.90;;;;;;5035008;28;20940;-67
2022/11/04 09:33:42;;;;;;;1999.90;999.90;;;12.40;99.90;;;;;;5045641;28;20489;-67
2022/11/04 09:36:10;;;;;;;1999.90;999.90;;;12.60;99.90;;;;;;5045019;28;20453;-67
2022/11/04 09:38:37;;;;;;;1999.90;999.90;;;12.70;99.90;;;;;;5034917;28;20455;-67
2022/11/04 09:41:10;;;;;;;1999.90;999.90;;;12.80;99.90;;;;;;5035127;28;20443;-67
2022/11/04 09:43:46;;;;;;;1999.90;999.90;;;12.80;99.90;;;;;;5034740;28;20900;-67
2022/11/04 09:46:14;;;;;;;1999.90;999.90;;;12.90;99.90;;;;;;5034609;28;20446;-66
2022/11/04 09:48:45;;;;;;;1999.90;999.90;;;13.00;99.90;;;;;;5047347;28;20458;-67
2022/11/04 09:51:13;;;;;;;1999.90;999.90;;;12.90;99.90;;;;;;5044879;28;20439;-68
2022/11/04 09:53:45;;;;;;;1999.90;999.90;;;12.90;99.90;;;;;;5034737;28;20867;-67
2022/11/04 09:56:17;;;;;;;1999.90;999.90;;;12.90;99.90;;;;;;5034012;28;20835;-67
2022/11/04 09:58:45;;;;;;;1999.90;999.90;;;12.90;99.90;;;;;;5034885;28;20423;-68
2022/11/04 10:01:27;;;;;;;1999.90;999.90;;;13.00;99.90;;;;;;5034285;28;20979;-68
2022/11/04 10:04:08;;;;;;;1999.90;999.90;;;13.00;99.90;;;;;;5041938;28;20497;-68
2022/11/04 10:06:47;;;;;;;1999.90;999.90;;;12.90;99.90;;;;;;5044540;28;20462;-67
2022/11/04 10:09:30;;;;;;;1999.90;999.90;;;13.00;99.90;;;;;;5047908;28;20460;-69
2022/11/04 10:12:07;;;;;;;1999.90;999.90;;;13.00;99.90;;;;;;5046579;28;20445;-67
2022/11/04 10:14:53;;;;;;;1999.90;999.90;;;13.10;99.90;;;;;;5034721;28;20979;-66
2022/11/04 10:17:36;;;;;;;1999.90;999.90;;;13.00;99.90;;;;;;5041706;28;20470;-69
2022/11/04 10:20:18;;;;;;;1999.90;999.90;;;12.80;99.90;;;;;;5048693;28;20454;-67
2022/11/04 10:22:57;;;;;;;1999.90;999.90;;;12.80;99.90;;;;;;5053240;28;20456;-67
2022/11/04 10:25:32;;;;;;;1999.90;999.90;;;12.90;99.90;;;;;;5050944;28;20462;-67
2022/11/04 10:28:00;;;;;;;1999.90;999.90;;;13.00;99.90;;;;;;5049483;28;20454;-66
2022/11/04 10:30:30;;;;;;;1999.90;999.90;;;12.90;99.90;;;;;;5050463;28;20466;-67
2022/11/04 10:33:03;;;;;;;1999.90;999.90;;;12.90;99.90;;;;;;5045807;28;20916;-67
2022/11/04 10:35:34;;;;;;;1999.90;999.90;;;12.80;99.90;;;;;;5033563;28;20891;-67
2022/11/04 10:38:16;;;;;;;1999.90;999.90;;;12.80;99.90;;;;;;5047465;28;20478;-67
2022/11/04 10:40:47;;;;;;;1999.90;999.90;;;12.90;99.90;;;;;;5039683;28;20435;-67
2022/11/04 10:43:18;;;;;;;1999.90;999.90;;;13.00;99.90;;;;;;5033965;28;20493;-67
2022/11/04 10:45:57;;;;;;;1999.90;999.90;;;13.00;99.90;;;;;;5046063;28;20458;-68
2022/11/04 10:48:29;;;;;;;1999.90;999.90;;;12.90;99.90;;;;;;5041911;28;20455;-68
2022/11/04 10:51:00;;;;;;;1999.90;999.90;;;13.00;99.90;;;;;;5033763;28;20438;-68
2022/11/04 10:53:29;;;;;;;1999.90;999.90;;;13.00;99.90;;;;;;5033595;28;20522;-67
2022/11/04 10:56:02;;;;;;;1999.90;999.90;;;13.10;99.90;;;;;;5033022;28;20434;-68
2022/11/04 10:58:32;;;;;;;1999.90;999.90;;;13.20;99.90;;;;;;5033622;28;20467;-68
2022/11/04 11:01:20;;;;;;;1999.90;999.90;;;13.30;99.90;;;;;;5050002;28;20467;-68
2022/11/04 11:03:47;;;;;;;1999.90;999.90;;;13.40;99.90;;;;;;5042046;28;20489;-68
2022/11/04 11:06:19;;;;;;;1999.90;999.90;;;13.40;99.90;;;;;;5050752;28;20446;-68
2022/11/04 11:08:46;;;;;;;1999.90;999.90;;;13.50;99.90;;;;;;5033494;28;20424;-67
2022/11/04 11:11:14;;;;;;;1999.90;999.90;;;13.40;99.90;;;;;;5033156;28;20458;-68
2022/11/04 11:13:43;;;;;;;1999.90;999.90;;;13.40;99.90;;;;;;5032973;28;20471;-67
2022/11/04 11:16:17;;;;;;;1999.90;999.90;;;13.40;99.90;;;;;;5032856;28;20554;-68
2022/11/04 11:18:43;;;;;;;1999.90;999.90;;;13.50;99.90;;;;;;5044923;28;20489;-67
2022/11/04 11:21:13;;;;;;;1999.90;999.90;;;13.40;99.90;;;;;;5043095;28;20828;-68
2022/11/04 11:23:46;;;;;;;1999.90;999.90;;;13.40;99.90;;;;;;5032929;28;20472;-67
2022/11/04 11:26:16;;;;;;;1999.90;999.90;;;13.40;99.90;;;;;;5032056;28;20487;-68
2022/11/04 11:28:49;;;;;;;1999.90;999.90;;;13.50;99.90;;;;;;5033069;28;20438;-67
2022/11/04 11:31:25;;;;;;;1999.90;999.90;;;13.50;99.90;;;;;;5032930;28;20458;-68
2022/11/04 11:33:54;;;;;;;1999.90;999.90;;;13.60;99.90;;;;;;5047029;28;20490;-68
2022/11/04 11:36:25;;;;;;;1999.90;999.90;;;13.50;99.90;;;;;;5040753;28;20477;-67
2022/11/04 11:38:57;;;;;;;1999.90;999.90;;;13.60;99.90;;;;;;5032761;28;20562;-68
2022/11/04 11:41:30;;;;;;;1999.90;999.90;;;13.50;99.90;;;;;;5032747;28;20447;-70
2022/11/04 11:44:00;;;;;;;1999.90;999.90;;;13.30;99.90;;;;;;5039083;28;20497;-68
2022/11/04 11:46:30;;;;;;;1999.90;999.90;;;13.20;99.90;;;;;;5044584;28;20484;-68
2022/11/04 11:49:00;;;;;;;1999.90;999.90;;;13.10;99.90;;;;;;5050933;28;20465;-67
2022/11/04 11:51:29;;;;;;;1999.90;999.90;;;13.10;99.90;;;;;;5040384;28;20486;-67
2022/11/04 11:54:27;;;;;;;1999.90;999.90;;;13.10;99.90;;;;;;5033456;28;20471;-69
2022/11/04 11:56:55;;;;;;;1999.90;999.90;;;13.20;99.90;;;;;;4988062;28;20532;-69
2022/11/04 11:59:31;;;;;;;1999.90;999.90;;;13.40;99.90;;;;;;5031977;28;20897;-69
2022/11/04 12:02:23;;;;;;;1999.90;999.90;;;13.40;99.90;;;;;;5033801;28;20529;-69
2022/11/04 12:04:50;;;;;;;1999.90;999.90;;;13.30;99.90;;;;;;5046971;28;20466;-69
2022/11/04 12:07:26;;;;;;;1999.90;999.90;;;13.40;99.90;;;;;;5052067;28;20478;-69
2022/11/04 12:10:00;;;;;;;1999.90;999.90;;;13.40;99.90;;;;;;5052175;28;20445;-68
2022/11/04 12:12:38;;;;;;;1999.90;999.90;;;13.60;99.90;;;;;;5050727;28;20469;-69
2022/11/04 12:15:24;;;;;;;1999.90;999.90;;;13.60;99.90;;;;;;5050053;28;20488;-68
2022/11/04 12:18:07;;;;;;;1999.90;999.90;;;13.60;99.90;;;;;;5044668;28;20485;-68
2022/11/04 12:20:43;;;;;;;1999.90;999.90;;;13.80;99.90;;;;;;5049188;28;20466;-67
2022/11/04 12:23:18;;;;;;;1999.90;999.90;;;13.90;99.90;;;;;;5045641;28;20465;-67
2022/11/04 12:25:52;;;;;;;1999.90;999.90;;;14.00;99.90;;;;;;5045501;28;20454;-68
2022/11/04 12:28:27;;;;;;;1999.90;999.90;;;13.90;99.90;;;;;;5049584;28;20477;-67
2022/11/04 12:31:07;;;;;;;1999.90;999.90;;;13.90;99.90;;;;;;5051561;28;20492;-68
2022/11/04 12:33:42;;;;;;;1999.90;999.90;;;14.00;99.90;;;;;;5048062;28;20509;-67
2022/11/04 12:36:25;;;;;;;1999.90;999.90;;;14.10;99.90;;;;;;5047860;28;20464;-67
2022/11/04 12:39:04;;;;;;;1999.90;999.90;;;13.90;99.90;;;;;;5042872;28;20494;-67
2022/11/04 12:41:40;;;;;;;1999.90;999.90;;;13.80;99.90;;;;;;5047839;28;20463;-67
2022/11/04 12:44:18;;;;;;;1999.90;999.90;;;13.70;99.90;;;;;;5048257;28;20493;-68
2022/11/04 12:46:56;;;;;;;1999.90;999.90;;;13.70;99.90;;;;;;5047737;28;20454;-67
2022/11/04 12:50:07;;;;;;;1999.90;999.90;;;13.70;99.90;;;;;;5047328;28;20464;-69